Thunder radar more information blitzortung!


Radar de pluja more information rain snow radar


Visita la nostra xarxa de llocs de meteo:

Template documentation
and downloads

And another site



No particular awareness of the weather is required.    There are no Weather-warnings

Pagina Historial Weather Underground text

Diari Resum Abril 5, 2016 Unitats:  Mètric    Imperial   Tant
« Previous Dia
SegĂźent Dia »
Diari Setmana Mensual Anual Personalitzada
  Maxima: Minima: Media:
Temperatura: -17.8 °C -11.9 °C -10.8 °C
Punt de rosada: -17.8 °C -12.8 °C -11.8 °C
Humitat: Humidity % 85 % 89 %
Wind Speed: 0 km/h 0 km/h 11.3 km/h
RĂ fegues de vent: 0 km/h - -
Vent:- - SE
Pression baro: 0 hPa 33924.3 hPa -
Precipitacions: 863.6 mm    
Historical Graphs
 
 
Dades de taula per Abril 5, 2016
Temps Temperatura Punt de rosada Pression baro Vent Wind Speed RĂ fegues de vent Humitat Rainfall Rate (Hourly)
-17.8 °C -17.8 °C 0 hPa Calm     Humidity % 0 mm
00:02 -11.2 °C -12.6 °C 33992.1 hPa ENE 6 km/h 6.3 km/h 85 % 0 mm
00:07 -11.2 °C -12.6 °C 33992.1 hPa ENE 6 km/h 6.3 km/h 85 % 0 mm
00:55 -10.7 °C -11.3 °C 33924.3 hPa ENE 12.9 km/h 12.9 km/h 93 % 0 mm
01:05 -10.7 °C -11.3 °C 33924.3 hPa East 20.8 km/h 20.8 km/h 93 % 0 mm
01:15 -10.7 °C -11.3 °C 33924.3 hPa East 20.8 km/h 28.5 km/h 93 % 0 mm
01:25 -10.7 °C -11.3 °C 33924.3 hPa East 15.6 km/h 33.6 km/h 93 % 0 mm
01:45 -10.7 °C -11.3 °C 33924.3 hPa East 18.2 km/h 23.3 km/h 93 % 0 mm
01:55 -10.7 °C -11.3 °C 33924.3 hPa East 15.6 km/h 23.3 km/h 93 % 0 mm
02:05 -10.6 °C -11.2 °C 33924.3 hPa East 15.6 km/h 18.2 km/h 93 % 0 mm
02:15 -10.6 °C -11.3 °C 33924.3 hPa ESE 12.9 km/h 12.9 km/h 92 % 0 mm
02:25 -10.6 °C -11.3 °C 33924.3 hPa ESE 7.7 km/h 15.6 km/h 92 % 0 mm
02:35 -10.6 °C -11.2 °C 33924.3 hPa ESE 7.7 km/h 25.9 km/h 93 % 0 mm
02:45 -10.6 °C -11.2 °C 33958.2 hPa ESE 23.3 km/h 23.3 km/h 93 % 0 mm
02:55 -10.6 °C -11.2 °C 33958.2 hPa ESE 15.6 km/h 20.8 km/h 93 % 0 mm
03:05 -10.6 °C -11.2 °C 33958.2 hPa SE 20.8 km/h 31.1 km/h 93 % 0 mm
03:15 -10.6 °C -11.3 °C 33958.2 hPa SE 20.8 km/h 25.9 km/h 92 % 0 mm
03:35 -10.6 °C -11.3 °C 33992.1 hPa ESE 12.9 km/h 23.3 km/h 92 % 0 mm
03:45 -10.6 °C -11.3 °C 33992.1 hPa ESE 12.9 km/h 15.6 km/h 92 % 0 mm
03:55 -10.6 °C -11.3 °C 33992.1 hPa East 15.6 km/h 15.6 km/h 92 % 0 mm
04:05 -10.7 °C -11.3 °C 33992.1 hPa ESE 18.2 km/h 23.3 km/h 92 % 0 mm
04:15 -10.7 °C -11.3 °C 33958.2 hPa ESE 15.6 km/h 20.8 km/h 92 % 0 mm
04:25 -10.7 °C -11.3 °C 33992.1 hPa ESE 12.9 km/h 20.8 km/h 93 % 0 mm
04:35 -10.7 °C -11.3 °C 33992.1 hPa ESE 18.2 km/h 31.1 km/h 93 % 0 mm
04:45 -10.7 °C -11.3 °C 33992.1 hPa ESE 12.9 km/h 28.5 km/h 93 % 0 mm
04:55 -10.6 °C -11.2 °C 34029.3 hPa ESE 20.8 km/h 33.6 km/h 93 % 0 mm
05:05 -10.7 °C -11.3 °C 34029.3 hPa SE 18.2 km/h 20.8 km/h 92 % 0 mm
05:15 -10.6 °C -11.2 °C 34029.3 hPa East 12.9 km/h 12.9 km/h 93 % 0 mm
10:16 -10.6 °C -11.2 °C 34029.3 hPa ENE 6 km/h 12.7 km/h 93 % 0 mm
10:21 -10.6 °C -11.2 °C 34063.2 hPa ESE 20.9 km/h 20.9 km/h 93 % 0 mm
10:26 -10.6 °C -11.2 °C 34063.2 hPa ENE 32.8 km/h 32.8 km/h 93 % 0 mm
10:31 -10.6 °C -11.2 °C 34063.2 hPa ESE 20.9 km/h 20.9 km/h 93 % 0 mm
10:36 -10.6 °C -11.2 °C 34063.2 hPa ESE 20.9 km/h 20.9 km/h 93 % 0 mm
10:46 -10.6 °C -11.2 °C 34063.2 hPa ENE 15 km/h 15 km/h 93 % 0 mm
10:51 -10.6 °C -11.2 °C 34063.2 hPa ENE 23.8 km/h 23.8 km/h 93 % 0 mm
10:56 -10.6 °C -11.2 °C 34063.2 hPa ESE 15 km/h 15 km/h 93 % 0 mm
11:01 -10.6 °C -11.2 °C 34063.2 hPa ESE 23.8 km/h 23.8 km/h 93 % 0 mm
11:06 -10.5 °C -11.2 °C 34063.2 hPa ESE 20.9 km/h 20.9 km/h 92 % 0 mm
11:11 -10.4 °C -11.2 °C 34063.2 hPa ESE 17.9 km/h 17.9 km/h 92 % 0 mm
11:16 -10.4 °C -11.2 °C 34063.2 hPa ENE 23.8 km/h 23.8 km/h 92 % 0 mm
11:21 -10.4 °C -11.2 °C 34063.2 hPa ENE 20.3 km/h 20.3 km/h 92 % 0 mm
11:26 -10.4 °C -11.2 °C 34063.2 hPa ENE 15 km/h 15 km/h 92 % 0 mm
11:31 -10.4 °C -11.1 °C 34063.2 hPa East 23.8 km/h 23.8 km/h 92 % 0 mm
11:36 -10.3 °C -11.1 °C 34063.2 hPa ESE 17.9 km/h 17.9 km/h 92 % 0 mm
11:41 -10.3 °C -11 °C 34063.2 hPa East 10.3 km/h 12.2 km/h 92 % 0 mm
11:51 -10.3 °C -11.1 °C 34063.2 hPa NNE 15 km/h 15 km/h 91 % 0 mm
11:56 -10.3 °C -11.1 °C 34063.2 hPa ENE 11.9 km/h 11.9 km/h 91 % 0 mm
12:01 -10.3 °C -11.1 °C 34063.2 hPa East 10.3 km/h 10.3 km/h 91 % 0 mm
12:06 -10.3 °C -11.1 °C 34063.2 hPa ESE 15.3 km/h 15.3 km/h 91 % 0 mm
12:11 -10.3 °C -11.1 °C 34063.2 hPa ENE 15 km/h 15 km/h 91 % 0 mm
12:16 -10.2 °C -10.9 °C 34063.2 hPa ENE 15 km/h 15 km/h 92 % 0 mm
12:22 -10.2 °C -10.9 °C 34063.2 hPa ENE 20.9 km/h 20.9 km/h 92 % 0 mm
12:27 -10.2 °C -10.9 °C 34063.2 hPa NNE 20.9 km/h 20.9 km/h 92 % 0 mm
12:32 -10.2 °C -10.9 °C 34063.2 hPa ESE 26.4 km/h 26.4 km/h 92 % 0 mm
12:37 -10.2 °C -10.9 °C 34063.2 hPa NNE 15 km/h 15 km/h 92 % 0 mm
12:42 -10.2 °C -10.9 °C 34063.2 hPa ESE 32.8 km/h 32.8 km/h 91 % 0 mm
12:47 -10.1 °C -10.9 °C 34063.2 hPa ESE 20.9 km/h 20.9 km/h 91 % 0 mm
12:52 -10.1 °C -11 °C 34097 hPa ESE 23.8 km/h 23.8 km/h 90 % 0 mm
12:57 -10.2 °C -11.1 °C 34097 hPa ENE 26.9 km/h 26.9 km/h 90 % 0 mm
13:02 -10.1 °C -11 °C 34097 hPa ESE 20.9 km/h 20.9 km/h 90 % 0 mm
13:07 -10.1 °C -10.9 °C 34097 hPa ENE 20.9 km/h 20.9 km/h 90 % 0 mm
13:12 -10.1 °C -11 °C 34097 hPa ENE 20.9 km/h 20.9 km/h 90 % 0 mm
13:17 -10.2 °C -11.1 °C 34097 hPa NE 11.9 km/h 11.9 km/h 90 % 0 mm
13:27 -10.3 °C -11.1 °C 34097 hPa NE 22 km/h 22 km/h 91 % 0 mm
13:32 -10.4 °C -11.2 °C 34097 hPa ENE 26.9 km/h 26.9 km/h 91 % 0 mm
13:37 -10.6 °C -11.4 °C 34130.9 hPa NE 31.9 km/h 31.9 km/h 90 % 0 mm
13:42 -10.8 °C -11.8 °C 34130.9 hPa NE 20.9 km/h 20.9 km/h 89 % 0 mm
13:47 -10.8 °C -11.8 °C 34130.9 hPa NE 32.8 km/h 32.8 km/h 89 % 0 mm
13:52 -10.9 °C -11.9 °C 34130.9 hPa NE 20.9 km/h 20.9 km/h 89 % 0 mm
13:57 -10.9 °C -11.9 °C 34130.9 hPa East 23.8 km/h 23.8 km/h 89 % 0 mm
14:02 -10.9 °C -11.9 °C 34130.9 hPa ENE 20.9 km/h 20.9 km/h 89 % 0 mm
14:07 -11 °C -12 °C 34130.9 hPa ENE 20.9 km/h 20.9 km/h 89 % 0 mm
14:12 -11 °C -12 °C 34130.9 hPa ESE 23.8 km/h 23.8 km/h 89 % 0 mm
14:17 -11.1 °C -12.1 °C 34130.9 hPa NE 27.7 km/h 27.7 km/h 89 % 0 mm
14:22 -11.1 °C -12.1 °C 34130.9 hPa NE 22 km/h 22 km/h 89 % 0 mm
14:32 -11.1 °C -11.9 °C 34130.9 hPa ENE 20.3 km/h 20.3 km/h 90 % 0 mm
14:37 -11.1 °C -12.1 °C 34097 hPa ENE 26.9 km/h 26.9 km/h 89 % 0 mm
14:42 -11.1 °C -12.1 °C 34097 hPa ESE 17.9 km/h 17.9 km/h 89 % 0 mm
14:47 -11.1 °C -12.1 °C 34097 hPa NNE 17.9 km/h 17.9 km/h 89 % 0 mm
14:52 -11 °C -12 °C 34130.9 hPa ENE 15 km/h 15 km/h 89 % 0 mm
14:57 -11 °C -12 °C 34130.9 hPa NE 11.9 km/h 11.9 km/h 89 % 0 mm
15:02 -11.1 °C -12.1 °C 34130.9 hPa NNE 15.3 km/h 15.3 km/h 89 % 0 mm
15:07 -11.1 °C -12.1 °C 34130.9 hPa NNE 15 km/h 15 km/h 89 % 0 mm
15:12 -11.1 °C -12.1 °C 34130.9 hPa East 15 km/h 15 km/h 89 % 0 mm
15:17 -11.1 °C -12.1 °C 34130.9 hPa NE 9 km/h 9 km/h 89 % 0 mm
15:22 -11 °C -12 °C 34130.9 hPa SE 9 km/h 9 km/h 89 % 0 mm
15:27 -10.9 °C -11.9 °C 34130.9 hPa East 9.8 km/h 9.8 km/h 89 % 0 mm
15:32 -10.9 °C -11.9 °C 34130.9 hPa ESE 9.8 km/h 9.8 km/h 89 % 0 mm
15:37 -10.8 °C -11.8 °C 34130.9 hPa NE 11.9 km/h 11.9 km/h 89 % 0 mm
15:42 -10.8 °C -11.8 °C 34130.9 hPa ESE 11.9 km/h 11.9 km/h 89 % 0 mm
15:47 -10.8 °C -11.8 °C 34130.9 hPa East 8.5 km/h 8.5 km/h 89 % 0 mm
15:52 -10.7 °C -11.7 °C 34130.9 hPa ESE 15 km/h 15 km/h 89 % 0 mm
15:57 -10.7 °C -11.6 °C 34130.9 hPa ESE 14 km/h 14 km/h 89 % 0 mm
16:02 -10.6 °C -11.6 °C 34130.9 hPa ENE 11.9 km/h 11.9 km/h 89 % 0 mm
16:07 -10.5 °C -11.6 °C 34130.9 hPa ESE 15 km/h 15 km/h 88 % 0 mm
16:12 -10.4 °C -11.5 °C 34130.9 hPa ESE 11.9 km/h 11.9 km/h 88 % 0 mm
16:22 -10.4 °C -11.6 °C 34130.9 hPa ESE 6.3 km/h 6.3 km/h 87 % 0 mm
16:32 -10.4 °C -11.6 °C 34130.9 hPa ENE 6.8 km/h 6.8 km/h 87 % 0 mm
16:37 -10.4 °C -11.6 °C 34130.9 hPa East 9 km/h 9 km/h 87 % 0 mm
16:42 -10.4 °C -11.7 °C 34130.9 hPa ESE 11.9 km/h 11.9 km/h 86 % 0 mm
16:47 -10.4 °C -11.7 °C 34130.9 hPa ESE 15 km/h 15 km/h 86 % 0 mm
16:52 -10.4 °C -11.7 °C 34164.7 hPa East 15 km/h 15 km/h 86 % 0 mm
16:57 -10.4 °C -11.7 °C 34164.7 hPa ENE 15 km/h 15 km/h 86 % 0 mm
17:02 -10.5 °C -11.8 °C 34164.7 hPa ENE 17.9 km/h 17.9 km/h 86 % 0 mm
17:07 -10.5 °C -11.9 °C 34164.7 hPa East 12.2 km/h 12.2 km/h 85 % 0 mm
17:12 -10.5 °C -11.8 °C 34164.7 hPa ESE 14.5 km/h 14.5 km/h 86 % 0 mm
17:17 -10.6 °C -11.8 °C 34164.7 hPa ESE 15 km/h 15 km/h 86 % 0 mm
17:27 -10.6 °C -11.8 °C 34164.7 hPa WNW 9 km/h 9 km/h 86 % 0 mm
17:32 -10.6 °C -11.8 °C 34164.7 hPa ENE 9 km/h 9 km/h 86 % 0 mm
17:37 -10.6 °C -11.9 °C 34198.6 hPa ESE 11.9 km/h 11.9 km/h 85 % 0 mm
17:42 -10.6 °C -11.9 °C 34198.6 hPa SSW 11.9 km/h 11.9 km/h 85 % 0 mm
17:47 -10.5 °C -11.8 °C 34198.6 hPa SSE 6 km/h 6 km/h 86 % 0 mm
17:52 -10.6 °C -11.8 °C 34198.6 hPa South 6 km/h   86 % 0 mm
17:57 -10.6 °C -11.7 °C 34198.6 hPa Calm     87 % 0 mm
18:02 -10.7 °C -11.8 °C 34198.6 hPa ENE 6 km/h 6 km/h 87 % 0 mm
18:07 -10.7 °C -11.8 °C 34198.6 hPa ENE 3.1 km/h   87 % 0 mm
18:17 -10.7 °C -11.8 °C 34198.6 hPa NW 6 km/h   88 % 0 mm
18:22 -10.8 °C -11.8 °C 34198.6 hPa Calm     88 % 0 mm
18:27 -10.8 °C -11.8 °C 34198.6 hPa NE 5.1 km/h 5.1 km/h 88 % 0 mm
18:32 -10.8 °C -11.8 °C 34198.6 hPa ENE 6.3 km/h   88 % 0 mm
18:37 -10.7 °C -11.7 °C 34198.6 hPa ENE 3.1 km/h 4.2 km/h 89 % 0 mm
18:42 -10.7 °C -11.7 °C 34198.6 hPa ENE 6 km/h 6 km/h 89 % 0 mm
18:47 -10.7 °C -11.7 °C 34198.6 hPa NNE 9.8 km/h 9.8 km/h 89 % 0 mm
18:52 -10.7 °C -11.7 °C 34198.6 hPa ESE 9 km/h 9 km/h 89 % 0 mm
18:57 -10.7 °C -11.7 °C 34198.6 hPa NNE 11.9 km/h 11.9 km/h 89 % 0 mm
19:02 -10.7 °C -11.7 °C 34198.6 hPa NNW 11.9 km/h 11.9 km/h 89 % 0 mm
19:07 -10.8 °C -11.8 °C 34198.6 hPa NNE 11.9 km/h 11.9 km/h 89 % 0 mm
19:12 -10.7 °C -11.7 °C 34198.6 hPa NE 15 km/h 15 km/h 89 % 0 mm
19:17 -10.7 °C -11.7 °C 34198.6 hPa NNE 9 km/h 9 km/h 89 % 0 mm
19:22 -10.7 °C -11.8 °C 34198.6 hPa NE 8 km/h 8 km/h 88 % 0 mm
19:27 -10.7 °C -11.8 °C 34198.6 hPa NE 9 km/h 9 km/h 88 % 0 mm
19:30 -11.3 °C -12.3 °C 34293.4 hPa WSW 2.6 km/h 5.1 km/h 88 % 0 mm
19:32 -10.7 °C -11.8 °C 34198.6 hPa NE 11.9 km/h 11.9 km/h 88 % 0 mm
19:37 -10.7 °C -11.8 °C 34198.6 hPa NNE 9 km/h 9 km/h 88 % 0 mm
19:40 -11.3 °C -12.4 °C 34293.4 hPa Calm   5.1 km/h 88 % 0 mm
19:42 -10.7 °C -11.8 °C 34198.6 hPa NNW 11.9 km/h 11.9 km/h 88 % 0 mm
19:47 -10.7 °C -11.8 °C 34198.6 hPa NNE 6 km/h 6 km/h 88 % 0 mm
19:50 -11.3 °C -12.4 °C 34293.4 hPa WSW 2.6 km/h 2.6 km/h 88 % 0 mm
19:52 -10.8 °C -11.8 °C 34222.3 hPa North 9 km/h 9 km/h 88 % 0 mm
19:57 -10.8 °C -11.8 °C 34222.3 hPa NE 6.3 km/h 6.3 km/h 88 % 0 mm
20:00 -11.4 °C -12.4 °C 34256.2 hPa Calm   5.1 km/h 88 % 0 mm
20:02 -10.8 °C -11.8 °C 34222.3 hPa ENE 3.1 km/h 3.7 km/h 88 % 0 mm
20:07 -10.8 °C -11.9 °C 34222.3 hPa NNE 6 km/h 6 km/h 88 % 0 mm
20:10 -11.4 °C -12.4 °C 34256.2 hPa Calm     88 % 0 mm
20:12 -10.8 °C -11.9 °C 34222.3 hPa NNE 3.1 km/h   88 % 0 mm
20:17 -10.8 °C -11.9 °C 34222.3 hPa NNE 3.1 km/h 3.1 km/h 88 % 0 mm
20:20 -11.4 °C -12.4 °C 34256.2 hPa Calm     88 % 0 mm
20:22 -10.8 °C -11.9 °C 34222.3 hPa ENE 3.1 km/h   88 % 0 mm
20:27 -10.8 °C -11.9 °C 34222.3 hPa NW 6.3 km/h   88 % 863.6 mm
20:30 -11.4 °C -12.4 °C 34256.2 hPa Calm     88 % 0 mm
20:37 -10.8 °C -12 °C 34222.3 hPa NW 6 km/h   87 % 863.6 mm
20:40 -11.4 °C -12.5 °C 34256.2 hPa WSW 2.6 km/h 5.1 km/h 88 % 0 mm
20:47 -10.8 °C -12 °C 34222.3 hPa ENE 4.2 km/h 4.2 km/h 87 % 863.6 mm
20:50 -11.4 °C -12.5 °C 34256.2 hPa SW 2.6 km/h 5.1 km/h 88 % 0 mm
20:52 -10.8 °C -11.9 °C 34256.2 hPa ENE 6.8 km/h   87 % 863.6 mm
20:57 -10.8 °C -11.9 °C 34256.2 hPa ENE 9 km/h 9 km/h 87 % 863.6 mm
21:00 -11.4 °C -12.4 °C 34256.2 hPa SW 2.6 km/h 5.1 km/h 89 % 0 mm
21:02 -10.8 °C -12.1 °C 34256.2 hPa NNE 3.7 km/h 3.7 km/h 86 % 863.6 mm
21:07 -10.8 °C -12.1 °C 34256.2 hPa NNE 6 km/h 6 km/h 86 % 863.6 mm
21:10 -11.4 °C -12.4 °C 34256.2 hPa SSW 2.6 km/h 5.1 km/h 89 % 0 mm
21:12 -10.8 °C -12.1 °C 34256.2 hPa Calm     86 % 863.6 mm
21:17 -10.8 °C -12.1 °C 34256.2 hPa West 3.1 km/h 3.1 km/h 86 % 863.6 mm
21:20 -11.5 °C -12.4 °C 34256.2 hPa SW 2.6 km/h 5.1 km/h 89 % 0 mm
21:22 -10.8 °C -12.1 °C 34256.2 hPa WNW 6 km/h 6 km/h 86 % 863.6 mm
21:27 -10.8 °C -12.1 °C 34256.2 hPa WSW 4.2 km/h   86 % 0 mm
21:30 -11.4 °C -12.4 °C 34293.4 hPa Calm   2.6 km/h 89 % 0 mm
21:32 -10.8 °C -12.1 °C 34256.2 hPa WSW 3.1 km/h 3.1 km/h 86 % 0 mm
21:37 -10.8 °C -12.1 °C 34256.2 hPa West 6 km/h   86 % 0 mm
21:40 -11.4 °C -12.3 °C 34293.4 hPa Calm     90 % 0 mm
21:42 -10.8 °C -12.1 °C 34256.2 hPa SW 3.1 km/h   86 % 0 mm
21:47 -10.8 °C -12.1 °C 34256.2 hPa SW 3.1 km/h 3.1 km/h 86 % 0 mm
21:50 -11.4 °C -12.3 °C 34293.4 hPa Calm     90 % 0 mm
21:52 -10.9 °C -12.2 °C 34256.2 hPa West 3.1 km/h 3.1 km/h 86 % 0 mm
21:57 -10.9 °C -12.1 °C 34256.2 hPa WNW 6 km/h   87 % 0 mm
22:00 -11.5 °C -12.4 °C 34256.2 hPa Calm     89 % 0 mm
22:02 -10.9 °C -12.1 °C 34256.2 hPa SW 6 km/h 6 km/h 87 % 0 mm
22:07 -10.9 °C -12.1 °C 34256.2 hPa West 6 km/h 6 km/h 87 % 0 mm
22:10 -11.6 °C -12.6 °C 34293.4 hPa Calm     89 % 0 mm
22:12 -10.9 °C -12.2 °C 34256.2 hPa SW 6 km/h 6 km/h 86 % 0 mm
22:17 -10.8 °C -12.1 °C 34256.2 hPa SW 9 km/h 9 km/h 86 % 0 mm
22:20 -11.6 °C -12.6 °C 34293.4 hPa Calm     89 % 0 mm
22:22 -10.9 °C -12.2 °C 34256.2 hPa SW 9 km/h 9 km/h 86 % 0 mm
22:27 -10.9 °C -12.1 °C 34256.2 hPa WSW 7.6 km/h 7.6 km/h 87 % 0 mm
22:30 -11.6 °C -12.6 °C 34293.4 hPa West 2.6 km/h 5.1 km/h 89 % 0 mm
22:32 -10.9 °C -12.1 °C 34256.2 hPa SSW 9 km/h 9 km/h 87 % 0 mm
22:37 -11 °C -12.1 °C 34256.2 hPa SW 6 km/h 6 km/h 88 % 0 mm
22:40 -11.6 °C -12.6 °C 34293.4 hPa NNW 2.6 km/h 2.6 km/h 89 % 0 mm
22:42 -11 °C -12.1 °C 34256.2 hPa WSW 9 km/h 9 km/h 88 % 0 mm
22:47 -11 °C -12 °C 34256.2 hPa SW 9 km/h 9 km/h 89 % 0 mm
22:50 -11.7 °C -12.6 °C 34293.4 hPa North 2.6 km/h 5.1 km/h 89 % 0 mm
22:52 -11 °C -12 °C 34256.2 hPa SW 9 km/h 9 km/h 89 % 0 mm
22:57 -11 °C -12 °C 34256.2 hPa NNW 9 km/h 9 km/h 89 % 0 mm
23:00 -11.7 °C -12.6 °C 34256.2 hPa WNW 2.6 km/h 5.1 km/h 89 % 0 mm
23:04 -11 °C -12 °C 34222.3 hPa SW 9 km/h 9 km/h 89 % 0 mm
23:09 -11 °C -12 °C 34222.3 hPa WSW 9.3 km/h 9.3 km/h 89 % 0 mm
23:10 -11.8 °C -12.8 °C 34293.4 hPa WSW 5.1 km/h 5.1 km/h 89 % 0 mm
23:14 -11 °C -12 °C 34222.3 hPa WSW 3.1 km/h 3.1 km/h 89 % 0 mm
23:19 -11.1 °C -12.1 °C 34256.2 hPa WSW 6 km/h 6 km/h 89 % 0 mm
23:20 -11.8 °C -12.7 °C 34293.4 hPa WSW 2.6 km/h 5.1 km/h 89 % 0 mm
23:24 -11.1 °C -12.1 °C 34256.2 hPa WSW 6.3 km/h 6.3 km/h 89 % 0 mm
23:29 -11.1 °C -12.1 °C 34256.2 hPa WSW 6.8 km/h 6.8 km/h 89 % 0 mm
23:30 -11.8 °C -12.7 °C 34256.2 hPa Calm   2.6 km/h 89 % 0 mm
23:34 -11.1 °C -12.1 °C 34256.2 hPa SW 6.3 km/h 6.8 km/h 89 % 0 mm
23:39 -11.1 °C -12.1 °C 34256.2 hPa WSW 6.3 km/h 6.3 km/h 89 % 0 mm
23:40 -11.8 °C -12.8 °C 34256.2 hPa Calm   5.1 km/h 89 % 0 mm
23:44 -11.1 °C -12.1 °C 34256.2 hPa WSW 6 km/h 6 km/h 89 % 0 mm
23:49 -11.1 °C -12.1 °C 34256.2 hPa WSW 6 km/h 6 km/h 89 % 0 mm
23:50 -11.9 °C -12.8 °C 34256.2 hPa West 2.6 km/h   89 % 0 mm
23:54 -11.1 °C -12.1 °C 34256.2 hPa WSW 6.8 km/h 6.8 km/h 89 % 0 mm
23:59 -11.1 °C -12.2 °C 34256.2 hPa WSW 9 km/h 9 km/h 88 % 0 mm
Meteo Sesrovires
Elogis d' Weather Underground - 2 mb

Guio original per  Jim McMurry - jmcmurry@mwt.net Adaptat per a la plantilla per  Wim van der Kuil - Leuven-Template.eu

Trobareu la nostra informacio del temps tambe a:

Weather Underground

AWEKAS